Time;durP1;ratioP1;P1;durP2;ratioP2;P2;SDS_P1;SDS_P2;PMS_P1;PMS_P2;Temp;Humidity;BMP_temperature;BMP_pressure;BME280_temperature;BME280_humidity;BME280_pressure;Samples;Min_cycle;Max_cycle;Signal;HPM_P1;HPM_P2
2023/09/22 00:03:15;;;;;;;;;;;14.00;99.90;;;;;;6704873;88;20107;-76
2023/09/22 00:13:16;;;;;;;;;;;13.90;99.90;;;;;;6706618;88;20361;-76
2023/09/22 00:23:17;;;;;;;;;;;13.90;99.90;;;;;;6707042;88;20697;-75
2023/09/22 00:33:17;;;;;;;;;;;13.80;99.90;;;;;;6696597;88;20195;-76
2023/09/22 00:43:18;;;;;;;;;;;13.70;99.90;;;;;;6705569;88;20568;-76
2023/09/22 00:53:19;;;;;;;;;;;13.60;99.90;;;;;;6702471;88;20056;-76
2023/09/22 01:03:19;;;;;;;;;;;13.50;99.90;;;;;;6697741;88;20080;-76
2023/09/22 01:13:20;;;;;;;;;;;13.20;99.90;;;;;;6710426;88;20507;-76
2023/09/22 01:23:21;;;;;;;;;;;13.00;99.90;;;;;;6704373;88;20077;-76
2023/09/22 01:33:21;;;;;;;;;;;12.80;99.90;;;;;;6703378;88;20050;-76
2023/09/22 01:43:22;;;;;;;;;;;12.70;99.90;;;;;;6693054;88;20060;-75
2023/09/22 01:53:22;;;;;;;;;;;12.90;99.90;;;;;;6704079;88;20185;-78
2023/09/22 02:03:23;;;;;;;;;;;12.90;99.90;;;;;;6712191;88;20069;-78
2023/09/22 02:13:23;;;;;;;;;;;12.90;99.90;;;;;;6696732;88;20194;-76
2023/09/22 02:23:25;;;;;;;;;;;12.60;99.90;;;;;;6711085;88;20184;-77
2023/09/22 02:33:25;;;;;;;;;;;12.50;99.90;;;;;;6709312;88;20080;-77
2023/09/22 02:43:26;;;;;;;;;;;12.30;99.90;;;;;;6703407;88;20055;-75
2023/09/22 02:53:26;;;;;;;;;;;12.40;99.90;;;;;;6715397;88;20071;-76
2023/09/22 03:03:27;;;;;;;;;;;12.50;99.90;;;;;;6702795;88;20122;-75
2023/09/22 03:13:27;;;;;;;;;;;12.50;99.90;;;;;;6699004;88;20086;-77
2023/09/22 03:23:28;;;;;;;;;;;12.50;99.90;;;;;;6704290;88;20065;-80
2023/09/22 03:33:28;;;;;;;;;;;12.30;99.90;;;;;;6712374;88;20214;-77
2023/09/22 03:43:29;;;;;;;;;;;12.20;99.90;;;;;;6707028;88;20172;-75
2023/09/22 03:53:29;;;;;;;;;;;12.20;99.90;;;;;;6706374;88;20553;-77
2023/09/22 04:03:30;;;;;;;;;;;12.40;99.90;;;;;;6712068;88;20052;-77
2023/09/22 04:13:30;;;;;;;;;;;12.60;99.90;;;;;;6707546;88;20155;-78
2023/09/22 04:23:31;;;;;;;;;;;12.70;99.90;;;;;;6704053;88;20052;-78
2023/09/22 04:33:32;;;;;;;;;;;12.90;99.90;;;;;;6702553;88;20175;-78
2023/09/22 04:43:35;;;;;;;;;;;13.10;99.90;;;;;;6702333;88;20080;-78
2023/09/22 04:53:36;;;;;;;;;;;13.30;99.90;;;;;;6707216;88;20187;-77
2023/09/22 05:03:37;;;;;;;;;;;13.20;99.90;;;;;;6710046;88;20140;-78
2023/09/22 05:13:37;;;;;;;;;;;13.00;99.90;;;;;;6713470;88;20063;-80
2023/09/22 05:23:38;;;;;;;;;;;12.90;99.90;;;;;;6708466;88;20484;-79
2023/09/22 05:33:39;;;;;;;;;;;12.80;99.90;;;;;;6702346;88;20138;-77
2023/09/22 05:43:40;;;;;;;;;;;12.70;99.90;;;;;;6708247;88;20202;-77
2023/09/22 05:53:40;;;;;;;;;;;12.80;99.90;;;;;;6706244;88;20083;-77
2023/09/22 06:03:41;;;;;;;;;;;13.00;99.90;;;;;;6704498;88;20165;-77
2023/09/22 06:13:42;;;;;;;;;;;13.10;99.90;;;;;;6692850;88;20076;-77
2023/09/22 06:23:42;;;;;;;;;;;13.20;99.90;;;;;;6702497;88;20166;-77
2023/09/22 06:33:43;;;;;;;;;;;13.10;99.90;;;;;;6705870;88;20081;-78
2023/09/22 06:43:44;;;;;;;;;;;13.10;99.90;;;;;;6707294;88;20177;-77
2023/09/22 06:53:47;;;;;;;;;;;13.20;99.90;;;;;;6698224;88;20211;-76
2023/09/22 07:03:48;;;;;;;;;;;13.40;99.90;;;;;;6694020;88;20074;-76
2023/09/22 07:13:48;;;;;;;;;;;13.50;99.90;;;;;;6689194;88;20283;-76
2023/09/22 07:23:49;;;;;;;;;;;13.60;99.90;;;;;;6698339;88;20210;-77
2023/09/22 07:33:49;;;;;;;;;;;13.80;99.90;;;;;;6699563;88;20066;-75
2023/09/22 07:43:52;;;;;;;;;;;14.10;99.90;;;;;;6705477;88;20555;-75
2023/09/22 07:53:52;;;;;;;;;;;14.40;99.90;;;;;;6696418;88;20098;-76
2023/09/22 08:03:53;;;;;;;;;;;14.80;99.90;;;;;;6700841;88;20112;-77
2023/09/22 08:13:53;;;;;;;;;;;15.10;99.90;;;;;;6700308;88;20079;-77
2023/09/22 08:23:54;;;;;;;;;;;15.30;99.90;;;;;;6708306;88;20077;-77
2023/09/22 08:33:55;;;;;;;;;;;15.60;99.90;;;;;;6706530;88;20119;-78
2023/09/22 08:43:57;;;;;;;;;;;16.40;99.90;;;;;;6698882;88;20458;-78
2023/09/22 08:53:58;;;;;;;;;;;17.20;99.90;;;;;;6702377;88;20581;-78
2023/09/22 09:03:59;;;;;;;;;;;17.60;99.90;;;;;;6704113;88;20076;-78
2023/09/22 09:14:19;;;;;;;;;;;17.70;99.90;;;;;;6703109;88;20083;-79
2023/09/22 09:24:23;;;;;;;;;;;18.40;99.90;;;;;;6702804;88;20059;-77
2023/09/22 09:34:37;;;;;;;;;;;19.00;99.90;;;;;;6712129;88;20171;-79
2023/09/22 09:44:38;;;;;;;;;;;17.80;99.90;;;;;;6703819;88;20077;-78
2023/09/22 09:54:43;;;;;;;;;;;18.90;99.90;;;;;;6707170;88;20080;-79
2023/09/22 10:04:44;;;;;;;;;;;19.70;99.90;;;;;;6704726;88;20478;-79
2023/09/22 10:14:51;;;;;;;;;;;18.20;99.90;;;;;;6707326;88;20198;-79
2023/09/22 10:25:10;;;;;;;;;;;17.90;99.90;;;;;;6707213;88;20063;-78
2023/09/22 10:35:34;;;;;;;;;;;18.60;99.90;;;;;;6705083;88;20448;-79
2023/09/22 10:45:36;;;;;;;;;;;19.10;99.90;;;;;;6707968;88;20063;-78
2023/09/22 10:55:38;;;;;;;;;;;20.60;99.90;;;;;;6702714;88;20686;-79
2023/09/22 11:05:39;;;;;;;;;;;20.40;99.90;;;;;;6697788;88;20064;-79
2023/09/22 11:15:46;;;;;;;;;;;20.20;99.90;;;;;;6702909;88;20055;-79
2023/09/22 11:25:57;;;;;;;;;;;21.20;99.90;;;;;;6707057;88;20087;-78
2023/09/22 11:35:57;;;;;;;;;;;20.50;99.90;;;;;;6709914;88;20084;-78
2023/09/22 11:46:08;;;;;;;;;;;21.50;99.90;;;;;;6711460;88;20097;-78
2023/09/22 11:56:08;;;;;;;;;;;22.10;99.30;;;;;;6710617;88;20054;-79
2023/09/22 12:06:12;;;;;;;;;;;21.50;99.90;;;;;;6710350;88;20099;-80
2023/09/22 12:16:12;;;;;;;;;;;21.10;99.10;;;;;;6724149;88;20253;-79
2023/09/22 12:26:13;;;;;;;;;;;21.70;99.90;;;;;;6715782;88;20046;-80
2023/09/22 12:36:14;;;;;;;;;;;20.60;99.20;;;;;;6719838;88;20069;-80
2023/09/22 12:46:15;;;;;;;;;;;19.60;99.90;;;;;;6717408;88;20189;-79
2023/09/22 12:56:15;;;;;;;;;;;20.70;99.70;;;;;;6716028;88;20268;-78
2023/09/22 13:06:16;;;;;;;;;;;19.90;99.90;;;;;;6709906;88;20146;-78
2023/09/22 13:16:17;;;;;;;;;;;21.20;99.90;;;;;;6710167;88;20116;-78
2023/09/22 13:26:17;;;;;;;;;;;20.70;99.40;;;;;;6691474;88;20082;-77
2023/09/22 13:36:18;;;;;;;;;;;22.20;99.00;;;;;;6693332;88;20212;-78
2023/09/22 13:46:19;;;;;;;;;;;21.70;98.20;;;;;;6704870;88;20134;-78
2023/09/22 13:56:19;;;;;;;;;;;22.80;97.20;;;;;;6702102;88;20091;-79
2023/09/22 14:06:21;;;;;;;;;;;20.90;98.40;;;;;;6704111;88;20060;-79
2023/09/22 14:16:21;;;;;;;;;;;19.90;99.90;;;;;;6709799;88;20126;-80
2023/09/22 14:26:22;;;;;;;;;;;19.60;99.90;;;;;;6717049;88;20083;-77
2023/09/22 14:36:22;;;;;;;;;;;19.20;99.90;;;;;;6714258;88;20576;-80
2023/09/22 14:46:23;;;;;;;;;;;19.00;99.90;;;;;;6716550;88;20059;-78
2023/09/22 14:56:24;;;;;;;;;;;18.80;99.90;;;;;;6708290;88;20086;-78
2023/09/22 15:06:24;;;;;;;;;;;18.80;99.90;;;;;;6699912;88;20076;-77
2023/09/22 15:16:25;;;;;;;;;;;18.60;99.90;;;;;;6700352;88;20619;-79
2023/09/22 15:26:25;;;;;;;;;;;18.60;99.90;;;;;;6702845;88;20106;-79
2023/09/22 15:47:11;;;;;;;;;;;15.00;99.90;;;;;;6726204;88;20059;-79
2023/09/22 15:57:11;;;;;;;;;;;14.00;99.90;;;;;;6716221;88;20065;-78
2023/09/22 16:07:11;;;;;;;;;;;13.80;99.90;;;;;;6718956;88;20054;-78
2023/09/22 16:17:12;;;;;;;;;;;13.90;99.90;;;;;;6718130;88;20064;-78
2023/09/22 16:27:12;;;;;;;;;;;13.90;99.90;;;;;;6710728;88;20167;-78
2023/09/22 16:37:13;;;;;;;;;;;14.00;99.90;;;;;;6711750;88;20554;-79
2023/09/22 16:47:13;;;;;;;;;;;14.20;99.90;;;;;;6727142;88;20461;-82
2023/09/22 16:57:14;;;;;;;;;;;14.30;99.90;;;;;;6728717;88;20038;-79
2023/09/22 17:07:14;;;;;;;;;;;14.20;99.90;;;;;;6718233;88;20433;-80
2023/09/22 17:17:15;;;;;;;;;;;14.20;99.90;;;;;;6730058;88;20077;-78
2023/09/22 17:27:16;;;;;;;;;;;14.10;99.90;;;;;;6712138;88;20047;-78
2023/09/22 17:37:17;;;;;;;;;;;13.90;99.90;;;;;;6716437;88;20738;-77
2023/09/22 17:47:17;;;;;;;;;;;13.80;99.90;;;;;;6712336;88;20067;-79
2023/09/22 17:57:18;;;;;;;;;;;13.60;99.90;;;;;;6723387;88;20052;-78
2023/09/22 18:07:18;;;;;;;;;;;13.60;99.90;;;;;;6718234;88;20055;-78
2023/09/22 18:17:20;;;;;;;;;;;13.40;99.90;;;;;;6706698;88;20532;-76
2023/09/22 18:27:20;;;;;;;;;;;13.50;99.90;;;;;;6705437;88;20074;-76
2023/09/22 18:37:21;;;;;;;;;;;13.50;99.90;;;;;;6704101;88;20499;-77
2023/09/22 18:47:21;;;;;;;;;;;13.50;99.90;;;;;;6709667;88;20075;-77
2023/09/22 18:57:21;;;;;;;;;;;13.40;99.90;;;;;;6711608;88;20055;-77
2023/09/22 19:07:22;;;;;;;;;;;13.40;99.90;;;;;;6705512;88;20183;-77
2023/09/22 19:17:22;;;;;;;;;;;13.30;99.90;;;;;;6705840;88;20051;-76
2023/09/22 19:27:23;;;;;;;;;;;13.10;99.90;;;;;;6697385;88;20103;-76
2023/09/22 19:37:23;;;;;;;;;;;13.00;99.90;;;;;;6701365;88;20056;-77
2023/09/22 19:47:24;;;;;;;;;;;13.00;99.90;;;;;;6703821;88;20087;-77
2023/09/22 19:57:24;;;;;;;;;;;12.80;99.90;;;;;;6713744;88;20094;-77
2023/09/22 20:07:25;;;;;;;;;;;12.70;99.90;;;;;;6703863;88;20047;-77
2023/09/22 20:17:25;;;;;;;;;;;12.60;99.90;;;;;;6706317;88;20063;-78
2023/09/22 20:27:27;;;;;;;;;;;12.40;99.90;;;;;;6709095;88;20044;-78
2023/09/22 20:37:27;;;;;;;;;;;12.40;99.90;;;;;;6708530;88;20129;-78
2023/09/22 20:47:28;;;;;;;;;;;12.20;99.90;;;;;;6711574;88;20511;-78
2023/09/22 20:57:28;;;;;;;;;;;12.20;99.90;;;;;;6717194;88;20063;-80
2023/09/22 21:07:29;;;;;;;;;;;12.10;99.90;;;;;;6712428;88;20186;-79
2023/09/22 21:17:30;;;;;;;;;;;12.00;99.90;;;;;;6716008;88;20059;-79
2023/09/22 21:27:30;;;;;;;;;;;11.90;99.90;;;;;;6707307;88;20059;-78
2023/09/22 21:48:12;;;;;;;;;;;11.80;99.90;;;;;;6689215;88;20066;-79
2023/09/22 21:58:12;;;;;;;;;;;11.80;99.90;;;;;;6683607;88;20109;-79
2023/09/22 22:08:19;;;;;;;;;;;11.80;99.90;;;;;;6683181;89;20072;-82
2023/09/22 22:18:21;;;;;;;;;;;11.90;99.90;;;;;;6685749;88;20047;-80
2023/09/22 22:28:21;;;;;;;;;;;11.90;99.90;;;;;;6689584;88;20085;-79
2023/09/22 22:38:22;;;;;;;;;;;12.00;99.90;;;;;;6703300;88;20071;-79
2023/09/22 22:48:26;;;;;;;;;;;12.00;99.90;;;;;;6702207;88;20055;-79
2023/09/22 22:58:26;;;;;;;;;;;12.00;99.90;;;;;;6696778;88;20082;-79
2023/09/22 23:08:27;;;;;;;;;;;12.10;99.90;;;;;;6692795;88;20127;-78
2023/09/22 23:18:28;;;;;;;;;;;12.10;99.90;;;;;;6693273;88;20451;-78
2023/09/22 23:28:28;;;;;;;;;;;12.20;99.90;;;;;;6689317;88;20098;-80
2023/09/22 23:38:29;;;;;;;;;;;12.10;99.90;;;;;;6685858;88;20610;-78
2023/09/22 23:48:31;;;;;;;;;;;12.00;99.90;;;;;;6705348;88;20140;-77
2023/09/22 23:58:33;;;;;;;;;;;11.90;99.90;;;;;;6700310;88;20062;-78
